sensor_id;sensor_type;location;lat;lon;timestamp;temperature;humidity
15407;DHT22;7802;51.568;6.364;2022-07-23T00:01:37;17.90;99.90
15407;DHT22;7802;51.568;6.364;2022-07-23T00:04:06;18.90;99.90
15407;DHT22;7802;51.568;6.364;2022-07-23T00:06:34;18.20;99.90
15407;DHT22;7802;51.568;6.364;2022-07-23T00:09:04;18.00;99.90
15407;DHT22;7802;51.568;6.364;2022-07-23T00:11:32;17.90;99.90
15407;DHT22;7802;51.568;6.364;2022-07-23T00:14:01;17.90;99.90
15407;DHT22;7802;51.568;6.364;2022-07-23T00:16:29;19.30;99.90
15407;DHT22;7802;51.568;6.364;2022-07-23T00:18:57;17.80;99.90
15407;DHT22;7802;51.568;6.364;2022-07-23T00:21:29;17.80;99.90
15407;DHT22;7802;51.568;6.364;2022-07-23T00:23:57;17.80;99.90
15407;DHT22;7802;51.568;6.364;2022-07-23T00:26:27;17.80;99.90
15407;DHT22;7802;51.568;6.364;2022-07-23T00:28:55;17.70;99.90
15407;DHT22;7802;51.568;6.364;2022-07-23T00:31:24;17.70;99.90
15407;DHT22;7802;51.568;6.364;2022-07-23T00:33:52;17.60;99.90
15407;DHT22;7802;51.568;6.364;2022-07-23T00:36:23;17.50;99.90
15407;DHT22;7802;51.568;6.364;2022-07-23T00:38:52;18.20;99.90
15407;DHT22;7802;51.568;6.364;2022-07-23T00:41:20;17.60;99.90
15407;DHT22;7802;51.568;6.364;2022-07-23T00:43:50;17.50;99.90
15407;DHT22;7802;51.568;6.364;2022-07-23T00:46:19;17.20;99.90
15407;DHT22;7802;51.568;6.364;2022-07-23T00:48:48;17.20;99.90
15407;DHT22;7802;51.568;6.364;2022-07-23T00:51:17;17.20;99.90
15407;DHT22;7802;51.568;6.364;2022-07-23T00:53:45;17.10;99.90
15407;DHT22;7802;51.568;6.364;2022-07-23T00:56:14;18.10;99.90
15407;DHT22;7802;51.568;6.364;2022-07-23T00:58:43;17.00;99.90
15407;DHT22;7802;51.568;6.364;2022-07-23T01:01:13;16.80;99.90
15407;DHT22;7802;51.568;6.364;2022-07-23T01:03:41;16.70;99.90
15407;DHT22;7802;51.568;6.364;2022-07-23T01:06:10;16.50;99.90
15407;DHT22;7802;51.568;6.364;2022-07-23T01:08:38;16.50;99.90
15407;DHT22;7802;51.568;6.364;2022-07-23T01:11:08;16.80;99.90
15407;DHT22;7802;51.568;6.364;2022-07-23T01:13:36;16.40;99.90
15407;DHT22;7802;51.568;6.364;2022-07-23T01:16:08;16.30;99.90
15407;DHT22;7802;51.568;6.364;2022-07-23T01:18:39;16.30;99.90
15407;DHT22;7802;51.568;6.364;2022-07-23T01:21:08;16.30;99.90
15407;DHT22;7802;51.568;6.364;2022-07-23T01:23:41;16.20;99.90
15407;DHT22;7802;51.568;6.364;2022-07-23T01:26:09;16.20;99.90
15407;DHT22;7802;51.568;6.364;2022-07-23T01:28:38;16.10;99.90
15407;DHT22;7802;51.568;6.364;2022-07-23T01:31:06;16.10;99.90
15407;DHT22;7802;51.568;6.364;2022-07-23T01:33:35;16.10;99.90
15407;DHT22;7802;51.568;6.364;2022-07-23T01:36:04;16.10;99.90
15407;DHT22;7802;51.568;6.364;2022-07-23T01:38:32;16.00;99.90
15407;DHT22;7802;51.568;6.364;2022-07-23T01:41:02;16.00;99.90
15407;DHT22;7802;51.568;6.364;2022-07-23T01:43:32;16.20;99.90
15407;DHT22;7802;51.568;6.364;2022-07-23T01:46:01;15.90;99.90
15407;DHT22;7802;51.568;6.364;2022-07-23T01:48:36;17.60;99.90
15407;DHT22;7802;51.568;6.364;2022-07-23T01:51:23;15.80;99.90
15407;DHT22;7802;51.568;6.364;2022-07-23T01:53:57;15.90;99.90
15407;DHT22;7802;51.568;6.364;2022-07-23T01:56:27;15.90;99.90
15407;DHT22;7802;51.568;6.364;2022-07-23T01:58:56;15.90;99.90
15407;DHT22;7802;51.568;6.364;2022-07-23T02:01:24;16.70;99.90
15407;DHT22;7802;51.568;6.364;2022-07-23T02:03:53;17.40;99.90
15407;DHT22;7802;51.568;6.364;2022-07-23T02:06:21;15.70;99.90
15407;DHT22;7802;51.568;6.364;2022-07-23T02:08:49;15.70;99.90
15407;DHT22;7802;51.568;6.364;2022-07-23T02:11:18;15.70;99.90
15407;DHT22;7802;51.568;6.364;2022-07-23T02:13:47;15.70;99.90
15407;DHT22;7802;51.568;6.364;2022-07-23T02:16:15;15.60;99.90
15407;DHT22;7802;51.568;6.364;2022-07-23T02:18:43;16.10;99.90
15407;DHT22;7802;51.568;6.364;2022-07-23T02:21:13;15.50;99.90
15407;DHT22;7802;51.568;6.364;2022-07-23T02:23:41;15.60;99.90
15407;DHT22;7802;51.568;6.364;2022-07-23T02:26:10;15.40;99.90
15407;DHT22;7802;51.568;6.364;2022-07-23T02:28:48;15.40;99.90
15407;DHT22;7802;51.568;6.364;2022-07-23T02:31:16;15.30;99.90
15407;DHT22;7802;51.568;6.364;2022-07-23T02:33:45;15.20;99.90
15407;DHT22;7802;51.568;6.364;2022-07-23T02:36:14;15.90;99.90
15407;DHT22;7802;51.568;6.364;2022-07-23T02:38:42;15.30;99.90
15407;DHT22;7802;51.568;6.364;2022-07-23T02:41:11;15.10;99.90
15407;DHT22;7802;51.568;6.364;2022-07-23T02:43:40;15.10;99.90
15407;DHT22;7802;51.568;6.364;2022-07-23T02:46:09;15.00;99.90
15407;DHT22;7802;51.568;6.364;2022-07-23T02:48:38;16.50;99.90
15407;DHT22;7802;51.568;6.364;2022-07-23T02:51:06;14.90;99.90
15407;DHT22;7802;51.568;6.364;2022-07-23T02:53:43;14.90;99.90
15407;DHT22;7802;51.568;6.364;2022-07-23T02:56:11;15.80;99.90
15407;DHT22;7802;51.568;6.364;2022-07-23T02:58:41;14.80;99.90
15407;DHT22;7802;51.568;6.364;2022-07-23T03:01:11;14.80;99.90
15407;DHT22;7802;51.568;6.364;2022-07-23T03:03:39;14.80;99.90
15407;DHT22;7802;51.568;6.364;2022-07-23T03:06:08;14.80;99.90
15407;DHT22;7802;51.568;6.364;2022-07-23T03:08:38;14.80;99.90
15407;DHT22;7802;51.568;6.364;2022-07-23T03:11:06;14.70;99.90
15407;DHT22;7802;51.568;6.364;2022-07-23T03:13:38;14.70;99.90
15407;DHT22;7802;51.568;6.364;2022-07-23T03:16:07;14.80;99.90
15407;DHT22;7802;51.568;6.364;2022-07-23T03:18:38;14.80;99.90
15407;DHT22;7802;51.568;6.364;2022-07-23T03:21:07;16.30;99.90
15407;DHT22;7802;51.568;6.364;2022-07-23T03:23:37;14.70;99.90
15407;DHT22;7802;51.568;6.364;2022-07-23T03:26:05;14.80;99.90
15407;DHT22;7802;51.568;6.364;2022-07-23T03:28:33;14.70;99.90
15407;DHT22;7802;51.568;6.364;2022-07-23T03:31:01;16.90;99.90
15407;DHT22;7802;51.568;6.364;2022-07-23T03:33:30;14.70;99.90
15407;DHT22;7802;51.568;6.364;2022-07-23T03:36:00;15.00;99.90
15407;DHT22;7802;51.568;6.364;2022-07-23T03:38:32;16.30;99.90
15407;DHT22;7802;51.568;6.364;2022-07-23T03:41:00;15.10;99.90
15407;DHT22;7802;51.568;6.364;2022-07-23T03:43:32;17.20;99.90
15407;DHT22;7802;51.568;6.364;2022-07-23T03:46:00;14.40;99.90
15407;DHT22;7802;51.568;6.364;2022-07-23T03:48:30;14.40;99.90
15407;DHT22;7802;51.568;6.364;2022-07-23T03:51:00;15.40;99.90
15407;DHT22;7802;51.568;6.364;2022-07-23T03:53:28;14.40;99.90
15407;DHT22;7802;51.568;6.364;2022-07-23T03:55:56;16.20;99.90
15407;DHT22;7802;51.568;6.364;2022-07-23T03:58:25;15.70;99.90
15407;DHT22;7802;51.568;6.364;2022-07-23T04:00:54;14.30;99.90
15407;DHT22;7802;51.568;6.364;2022-07-23T04:03:22;14.40;99.90
15407;DHT22;7802;51.568;6.364;2022-07-23T04:05:51;14.40;99.90
15407;DHT22;7802;51.568;6.364;2022-07-23T04:08:22;14.30;99.90
15407;DHT22;7802;51.568;6.364;2022-07-23T04:10:52;16.50;99.90
15407;DHT22;7802;51.568;6.364;2022-07-23T04:13:21;14.40;99.90
15407;DHT22;7802;51.568;6.364;2022-07-23T04:15:49;15.00;99.90
15407;DHT22;7802;51.568;6.364;2022-07-23T04:18:19;14.40;99.90
15407;DHT22;7802;51.568;6.364;2022-07-23T04:20:56;15.30;99.90
15407;DHT22;7802;51.568;6.364;2022-07-23T04:23:27;14.30;99.90
15407;DHT22;7802;51.568;6.364;2022-07-23T04:25:55;14.40;99.90
15407;DHT22;7802;51.568;6.364;2022-07-23T04:28:24;14.40;99.90
15407;DHT22;7802;51.568;6.364;2022-07-23T04:30:52;15.10;99.90
15407;DHT22;7802;51.568;6.364;2022-07-23T04:33:23;14.50;99.90
15407;DHT22;7802;51.568;6.364;2022-07-23T04:35:54;14.60;99.90
15407;DHT22;7802;51.568;6.364;2022-07-23T04:38:22;14.60;99.90
15407;DHT22;7802;51.568;6.364;2022-07-23T04:40:57;14.60;99.90
15407;DHT22;7802;51.568;6.364;2022-07-23T04:43:25;14.70;99.90
15407;DHT22;7802;51.568;6.364;2022-07-23T04:45:54;17.50;99.90
15407;DHT22;7802;51.568;6.364;2022-07-23T04:48:22;16.80;99.90
15407;DHT22;7802;51.568;6.364;2022-07-23T04:50:58;14.80;99.90
15407;DHT22;7802;51.568;6.364;2022-07-23T04:53:29;14.90;99.90
15407;DHT22;7802;51.568;6.364;2022-07-23T04:56:01;15.00;99.90
15407;DHT22;7802;51.568;6.364;2022-07-23T04:58:30;15.00;99.90
15407;DHT22;7802;51.568;6.364;2022-07-23T05:00:59;15.10;99.90
15407;DHT22;7802;51.568;6.364;2022-07-23T05:03:30;15.10;99.90
15407;DHT22;7802;51.568;6.364;2022-07-23T05:05:59;15.20;99.90
15407;DHT22;7802;51.568;6.364;2022-07-23T05:08:28;15.30;99.90
15407;DHT22;7802;51.568;6.364;2022-07-23T05:10:58;15.80;99.90
15407;DHT22;7802;51.568;6.364;2022-07-23T05:13:29;16.40;99.90
15407;DHT22;7802;51.568;6.364;2022-07-23T05:15:58;15.40;99.90
15407;DHT22;7802;51.568;6.364;2022-07-23T05:18:26;15.50;99.90
15407;DHT22;7802;51.568;6.364;2022-07-23T05:20:55;15.50;99.90
15407;DHT22;7802;51.568;6.364;2022-07-23T05:23:24;15.60;99.90
15407;DHT22;7802;51.568;6.364;2022-07-23T05:25:52;16.40;99.90
15407;DHT22;7802;51.568;6.364;2022-07-23T05:28:21;16.70;99.90
15407;DHT22;7802;51.568;6.364;2022-07-23T05:30:54;16.50;99.90
15407;DHT22;7802;51.568;6.364;2022-07-23T05:33:23;16.00;99.90
15407;DHT22;7802;51.568;6.364;2022-07-23T05:35:52;16.10;99.90
15407;DHT22;7802;51.568;6.364;2022-07-23T05:38:32;16.30;99.90
15407;DHT22;7802;51.568;6.364;2022-07-23T05:41:02;16.40;99.90
15407;DHT22;7802;51.568;6.364;2022-07-23T05:43:31;16.50;99.90
15407;DHT22;7802;51.568;6.364;2022-07-23T05:46:07;16.60;99.90
15407;DHT22;7802;51.568;6.364;2022-07-23T05:48:38;17.60;99.90
15407;DHT22;7802;51.568;6.364;2022-07-23T05:51:13;17.10;99.90
15407;DHT22;7802;51.568;6.364;2022-07-23T05:53:41;17.00;99.90
15407;DHT22;7802;51.568;6.364;2022-07-23T05:56:14;16.80;99.90
15407;DHT22;7802;51.568;6.364;2022-07-23T05:58:43;18.00;99.90
15407;DHT22;7802;51.568;6.364;2022-07-23T06:01:15;17.00;99.90
15407;DHT22;7802;51.568;6.364;2022-07-23T06:03:50;18.10;99.90
15407;DHT22;7802;51.568;6.364;2022-07-23T06:06:18;17.20;99.90
15407;DHT22;7802;51.568;6.364;2022-07-23T06:08:47;17.30;99.90
15407;DHT22;7802;51.568;6.364;2022-07-23T06:11:15;17.50;99.90
15407;DHT22;7802;51.568;6.364;2022-07-23T06:13:43;18.20;99.90
15407;DHT22;7802;51.568;6.364;2022-07-23T06:16:12;17.50;99.90
15407;DHT22;7802;51.568;6.364;2022-07-23T06:18:42;17.60;99.90
15407;DHT22;7802;51.568;6.364;2022-07-23T06:21:10;18.90;99.90
15407;DHT22;7802;51.568;6.364;2022-07-23T06:23:58;18.20;99.90
15407;DHT22;7802;51.568;6.364;2022-07-23T06:26:26;18.20;99.90
15407;DHT22;7802;51.568;6.364;2022-07-23T06:28:55;17.90;99.90
15407;DHT22;7802;51.568;6.364;2022-07-23T06:31:24;18.00;99.90
15407;DHT22;7802;51.568;6.364;2022-07-23T06:33:54;18.10;99.90
15407;DHT22;7802;51.568;6.364;2022-07-23T06:36:22;18.10;99.90
15407;DHT22;7802;51.568;6.364;2022-07-23T06:38:51;18.60;99.90
15407;DHT22;7802;51.568;6.364;2022-07-23T06:41:20;19.30;99.90
15407;DHT22;7802;51.568;6.364;2022-07-23T06:43:49;19.80;99.90
15407;DHT22;7802;51.568;6.364;2022-07-23T06:46:20;20.50;99.90
15407;DHT22;7802;51.568;6.364;2022-07-23T06:48:49;21.20;99.90
15407;DHT22;7802;51.568;6.364;2022-07-23T06:51:19;21.70;99.90
15407;DHT22;7802;51.568;6.364;2022-07-23T06:53:48;22.30;99.90
15407;DHT22;7802;51.568;6.364;2022-07-23T06:56:16;23.30;99.90
15407;DHT22;7802;51.568;6.364;2022-07-23T06:58:44;23.70;99.90
15407;DHT22;7802;51.568;6.364;2022-07-23T07:01:13;24.00;99.90
15407;DHT22;7802;51.568;6.364;2022-07-23T07:03:42;24.00;99.90
15407;DHT22;7802;51.568;6.364;2022-07-23T07:06:10;24.40;99.90
15407;DHT22;7802;51.568;6.364;2022-07-23T07:08:40;24.20;99.90
15407;DHT22;7802;51.568;6.364;2022-07-23T07:11:10;24.20;99.90
15407;DHT22;7802;51.568;6.364;2022-07-23T07:13:38;24.10;99.90
15407;DHT22;7802;51.568;6.364;2022-07-23T07:16:07;23.70;99.90
15407;DHT22;7802;51.568;6.364;2022-07-23T07:18:35;25.60;99.90
15407;DHT22;7802;51.568;6.364;2022-07-23T07:21:04;23.90;99.90
15407;DHT22;7802;51.568;6.364;2022-07-23T07:23:32;23.60;99.90
15407;DHT22;7802;51.568;6.364;2022-07-23T07:26:02;23.70;99.90
15407;DHT22;7802;51.568;6.364;2022-07-23T07:28:30;23.50;99.90
15407;DHT22;7802;51.568;6.364;2022-07-23T07:30:58;23.60;99.90
15407;DHT22;7802;51.568;6.364;2022-07-23T07:33:27;23.40;99.90
15407;DHT22;7802;51.568;6.364;2022-07-23T07:35:55;23.40;99.90
15407;DHT22;7802;51.568;6.364;2022-07-23T07:38:24;23.50;99.90
15407;DHT22;7802;51.568;6.364;2022-07-23T07:40:52;23.70;99.90
15407;DHT22;7802;51.568;6.364;2022-07-23T07:43:23;24.80;99.90
15407;DHT22;7802;51.568;6.364;2022-07-23T07:45:51;23.80;99.90
15407;DHT22;7802;51.568;6.364;2022-07-23T07:48:19;23.90;99.90
15407;DHT22;7802;51.568;6.364;2022-07-23T07:50:47;24.30;99.90
15407;DHT22;7802;51.568;6.364;2022-07-23T07:53:15;23.90;99.90
15407;DHT22;7802;51.568;6.364;2022-07-23T07:55:44;23.80;99.90
15407;DHT22;7802;51.568;6.364;2022-07-23T07:58:17;24.00;99.90
15407;DHT22;7802;51.568;6.364;2022-07-23T08:00:47;23.90;99.90
15407;DHT22;7802;51.568;6.364;2022-07-23T08:03:16;23.90;99.90
15407;DHT22;7802;51.568;6.364;2022-07-23T08:05:44;23.80;99.90
15407;DHT22;7802;51.568;6.364;2022-07-23T08:08:13;23.80;99.90
15407;DHT22;7802;51.568;6.364;2022-07-23T08:10:43;23.70;99.90
15407;DHT22;7802;51.568;6.364;2022-07-23T08:13:13;23.70;99.90
15407;DHT22;7802;51.568;6.364;2022-07-23T08:15:43;24.60;99.90
15407;DHT22;7802;51.568;6.364;2022-07-23T08:18:14;24.00;99.90
15407;DHT22;7802;51.568;6.364;2022-07-23T08:20:42;23.90;99.90
15407;DHT22;7802;51.568;6.364;2022-07-23T08:23:10;23.70;99.90
15407;DHT22;7802;51.568;6.364;2022-07-23T08:25:40;23.60;99.90
15407;DHT22;7802;51.568;6.364;2022-07-23T08:28:10;23.60;99.90
15407;DHT22;7802;51.568;6.364;2022-07-23T08:30:41;24.30;99.90
15407;DHT22;7802;51.568;6.364;2022-07-23T08:33:11;24.00;99.90
15407;DHT22;7802;51.568;6.364;2022-07-23T08:36:01;23.90;99.90
15407;DHT22;7802;51.568;6.364;2022-07-23T08:38:31;23.70;99.90
15407;DHT22;7802;51.568;6.364;2022-07-23T08:41:00;23.70;99.90
15407;DHT22;7802;51.568;6.364;2022-07-23T08:43:30;23.90;99.90
15407;DHT22;7802;51.568;6.364;2022-07-23T08:46:01;23.80;99.90
15407;DHT22;7802;51.568;6.364;2022-07-23T08:48:30;23.90;99.90
15407;DHT22;7802;51.568;6.364;2022-07-23T08:51:01;24.30;99.90
15407;DHT22;7802;51.568;6.364;2022-07-23T08:53:31;24.50;99.90
15407;DHT22;7802;51.568;6.364;2022-07-23T08:56:02;24.70;99.90
15407;DHT22;7802;51.568;6.364;2022-07-23T08:58:30;24.80;99.90
15407;DHT22;7802;51.568;6.364;2022-07-23T09:00:59;24.70;99.90
15407;DHT22;7802;51.568;6.364;2022-07-23T09:03:29;24.80;99.90
15407;DHT22;7802;51.568;6.364;2022-07-23T09:05:59;25.00;99.90
15407;DHT22;7802;51.568;6.364;2022-07-23T09:08:36;25.20;99.90
15407;DHT22;7802;51.568;6.364;2022-07-23T09:11:06;25.70;99.90
15407;DHT22;7802;51.568;6.364;2022-07-23T09:13:37;25.60;99.90
15407;DHT22;7802;51.568;6.364;2022-07-23T09:16:08;25.10;99.90
15407;DHT22;7802;51.568;6.364;2022-07-23T09:18:43;25.60;99.90
15407;DHT22;7802;51.568;6.364;2022-07-23T09:21:20;25.20;99.90
15407;DHT22;7802;51.568;6.364;2022-07-23T09:24:04;25.60;99.90
15407;DHT22;7802;51.568;6.364;2022-07-23T09:26:35;26.00;99.90
15407;DHT22;7802;51.568;6.364;2022-07-23T09:29:07;26.10;99.90
15407;DHT22;7802;51.568;6.364;2022-07-23T09:31:47;25.80;99.90
15407;DHT22;7802;51.568;6.364;2022-07-23T09:34:19;25.50;99.90
15407;DHT22;7802;51.568;6.364;2022-07-23T09:36:51;25.40;99.90
15407;DHT22;7802;51.568;6.364;2022-07-23T09:39:29;25.40;99.90
15407;DHT22;7802;51.568;6.364;2022-07-23T09:41:58;25.20;99.90
15407;DHT22;7802;51.568;6.364;2022-07-23T09:44:26;25.80;99.90
15407;DHT22;7802;51.568;6.364;2022-07-23T09:46:59;26.10;99.90
15407;DHT22;7802;51.568;6.364;2022-07-23T09:49:28;26.20;99.90
15407;DHT22;7802;51.568;6.364;2022-07-23T09:51:59;26.30;99.90
15407;DHT22;7802;51.568;6.364;2022-07-23T09:54:32;26.00;99.90
15407;DHT22;7802;51.568;6.364;2022-07-23T09:57:04;25.90;99.90
15407;DHT22;7802;51.568;6.364;2022-07-23T09:59:35;26.10;99.90
15407;DHT22;7802;51.568;6.364;2022-07-23T10:02:05;26.40;99.90
15407;DHT22;7802;51.568;6.364;2022-07-23T10:04:43;26.10;99.90
15407;DHT22;7802;51.568;6.364;2022-07-23T10:07:22;26.00;99.90
15407;DHT22;7802;51.568;6.364;2022-07-23T10:10:13;25.90;99.90
15407;DHT22;7802;51.568;6.364;2022-07-23T10:13:02;25.70;99.90
15407;DHT22;7802;51.568;6.364;2022-07-23T10:15:48;25.80;99.90
15407;DHT22;7802;51.568;6.364;2022-07-23T10:18:17;26.70;99.90
15407;DHT22;7802;51.568;6.364;2022-07-23T10:20:47;26.90;99.90
15407;DHT22;7802;51.568;6.364;2022-07-23T10:23:27;26.20;99.90
15407;DHT22;7802;51.568;6.364;2022-07-23T10:26:17;26.00;99.90
15407;DHT22;7802;51.568;6.364;2022-07-23T10:29:06;25.90;99.90
15407;DHT22;7802;51.568;6.364;2022-07-23T10:31:51;26.10;99.90
15407;DHT22;7802;51.568;6.364;2022-07-23T10:34:38;25.80;99.90
15407;DHT22;7802;51.568;6.364;2022-07-23T10:37:21;25.90;99.90
15407;DHT22;7802;51.568;6.364;2022-07-23T10:40:09;25.70;99.90
15407;DHT22;7802;51.568;6.364;2022-07-23T10:42:39;26.30;99.90
15407;DHT22;7802;51.568;6.364;2022-07-23T10:45:26;26.30;99.90
15407;DHT22;7802;51.568;6.364;2022-07-23T10:47:55;26.10;99.90
15407;DHT22;7802;51.568;6.364;2022-07-23T10:50:26;25.90;99.90
15407;DHT22;7802;51.568;6.364;2022-07-23T10:53:12;25.90;99.90
15407;DHT22;7802;51.568;6.364;2022-07-23T10:55:46;25.70;99.90
15407;DHT22;7802;51.568;6.364;2022-07-23T10:58:22;25.40;99.90
15407;DHT22;7802;51.568;6.364;2022-07-23T11:00:51;25.20;99.90
15407;DHT22;7802;51.568;6.364;2022-07-23T11:03:31;25.00;99.90
15407;DHT22;7802;51.568;6.364;2022-07-23T11:06:06;25.00;99.90
15407;DHT22;7802;51.568;6.364;2022-07-23T11:08:34;25.00;99.90
15407;DHT22;7802;51.568;6.364;2022-07-23T11:11:10;25.20;99.90
15407;DHT22;7802;51.568;6.364;2022-07-23T11:13:47;25.40;99.90
15407;DHT22;7802;51.568;6.364;2022-07-23T11:16:26;25.60;99.90
15407;DHT22;7802;51.568;6.364;2022-07-23T11:19:12;25.40;99.90
15407;DHT22;7802;51.568;6.364;2022-07-23T11:21:50;25.50;99.90
15407;DHT22;7802;51.568;6.364;2022-07-23T11:24:23;25.50;99.90
15407;DHT22;7802;51.568;6.364;2022-07-23T11:27:00;25.60;99.90
15407;DHT22;7802;51.568;6.364;2022-07-23T11:29:41;25.60;99.90
15407;DHT22;7802;51.568;6.364;2022-07-23T11:32:31;25.70;99.90
15407;DHT22;7802;51.568;6.364;2022-07-23T11:35:02;25.70;99.90
15407;DHT22;7802;51.568;6.364;2022-07-23T11:37:36;25.70;99.90
15407;DHT22;7802;51.568;6.364;2022-07-23T11:40:08;26.10;99.90
15407;DHT22;7802;51.568;6.364;2022-07-23T11:42:38;25.30;99.90
15407;DHT22;7802;51.568;6.364;2022-07-23T11:45:09;25.20;99.90
15407;DHT22;7802;51.568;6.364;2022-07-23T11:47:37;25.30;99.90
15407;DHT22;7802;51.568;6.364;2022-07-23T11:50:06;25.40;99.90
15407;DHT22;7802;51.568;6.364;2022-07-23T11:52:35;25.50;99.90
15407;DHT22;7802;51.568;6.364;2022-07-23T11:55:05;25.60;99.90
15407;DHT22;7802;51.568;6.364;2022-07-23T11:57:36;25.60;99.90
15407;DHT22;7802;51.568;6.364;2022-07-23T12:00:10;25.50;99.90
15407;DHT22;7802;51.568;6.364;2022-07-23T12:02:39;25.60;99.90
15407;DHT22;7802;51.568;6.364;2022-07-23T12:05:09;25.40;99.90
15407;DHT22;7802;51.568;6.364;2022-07-23T12:07:40;25.40;99.90
15407;DHT22;7802;51.568;6.364;2022-07-23T12:10:13;25.30;99.90
15407;DHT22;7802;51.568;6.364;2022-07-23T12:12:43;25.10;99.90
15407;DHT22;7802;51.568;6.364;2022-07-23T12:15:15;25.10;99.90
15407;DHT22;7802;51.568;6.364;2022-07-23T12:17:45;25.20;99.90
15407;DHT22;7802;51.568;6.364;2022-07-23T12:20:20;25.10;99.90
15407;DHT22;7802;51.568;6.364;2022-07-23T12:22:50;25.00;99.90
15407;DHT22;7802;51.568;6.364;2022-07-23T12:25:21;24.80;99.90
15407;DHT22;7802;51.568;6.364;2022-07-23T12:27:59;24.50;99.90
15407;DHT22;7802;51.568;6.364;2022-07-23T12:30:31;24.30;99.90
15407;DHT22;7802;51.568;6.364;2022-07-23T12:33:01;25.00;99.90
15407;DHT22;7802;51.568;6.364;2022-07-23T12:35:33;24.50;99.90
15407;DHT22;7802;51.568;6.364;2022-07-23T12:38:04;24.70;99.90
15407;DHT22;7802;51.568;6.364;2022-07-23T12:40:34;24.80;99.90
15407;DHT22;7802;51.568;6.364;2022-07-23T12:43:22;24.90;99.90
15407;DHT22;7802;51.568;6.364;2022-07-23T12:45:54;24.90;99.90
15407;DHT22;7802;51.568;6.364;2022-07-23T12:48:25;25.00;99.90
15407;DHT22;7802;51.568;6.364;2022-07-23T12:50:55;24.90;99.90
15407;DHT22;7802;51.568;6.364;2022-07-23T12:53:27;25.00;99.90
15407;DHT22;7802;51.568;6.364;2022-07-23T12:56:03;25.00;99.90
15407;DHT22;7802;51.568;6.364;2022-07-23T12:58:45;25.10;99.90
15407;DHT22;7802;51.568;6.364;2022-07-23T13:01:34;25.10;99.90
15407;DHT22;7802;51.568;6.364;2022-07-23T13:04:05;25.00;99.90
15407;DHT22;7802;51.568;6.364;2022-07-23T13:06:41;25.00;99.90
15407;DHT22;7802;51.568;6.364;2022-07-23T13:09:14;25.00;99.90
15407;DHT22;7802;51.568;6.364;2022-07-23T13:11:44;25.00;99.90
15407;DHT22;7802;51.568;6.364;2022-07-23T13:14:14;24.90;99.90
15407;DHT22;7802;51.568;6.364;2022-07-23T13:16:45;24.90;99.90
15407;DHT22;7802;51.568;6.364;2022-07-23T13:19:14;24.90;99.90
15407;DHT22;7802;51.568;6.364;2022-07-23T13:21:45;25.00;99.90
15407;DHT22;7802;51.568;6.364;2022-07-23T13:24:13;25.00;99.90
15407;DHT22;7802;51.568;6.364;2022-07-23T13:26:42;25.10;99.90
15407;DHT22;7802;51.568;6.364;2022-07-23T13:29:13;25.20;99.90
15407;DHT22;7802;51.568;6.364;2022-07-23T13:31:44;25.00;99.90
15407;DHT22;7802;51.568;6.364;2022-07-23T13:34:13;25.70;99.90
15407;DHT22;7802;51.568;6.364;2022-07-23T13:36:41;24.90;99.90
15407;DHT22;7802;51.568;6.364;2022-07-23T13:39:11;24.70;99.90
15407;DHT22;7802;51.568;6.364;2022-07-23T13:41:39;24.70;99.90
15407;DHT22;7802;51.568;6.364;2022-07-23T13:44:17;24.50;99.90
15407;DHT22;7802;51.568;6.364;2022-07-23T13:46:49;24.40;99.90
15407;DHT22;7802;51.568;6.364;2022-07-23T13:49:18;24.40;99.90
15407;DHT22;7802;51.568;6.364;2022-07-23T13:51:48;24.40;99.90
15407;DHT22;7802;51.568;6.364;2022-07-23T13:54:16;24.60;99.90
15407;DHT22;7802;51.568;6.364;2022-07-23T13:56:45;24.50;99.90
15407;DHT22;7802;51.568;6.364;2022-07-23T13:59:14;24.50;99.90
15407;DHT22;7802;51.568;6.364;2022-07-23T14:01:43;24.60;99.90
15407;DHT22;7802;51.568;6.364;2022-07-23T14:04:33;24.70;99.90
15407;DHT22;7802;51.568;6.364;2022-07-23T14:07:02;26.20;99.90
15407;DHT22;7802;51.568;6.364;2022-07-23T14:09:30;24.60;99.90
15407;DHT22;7802;51.568;6.364;2022-07-23T14:12:00;24.70;99.90
15407;DHT22;7802;51.568;6.364;2022-07-23T14:14:28;24.70;99.90
15407;DHT22;7802;51.568;6.364;2022-07-23T14:16:57;24.90;99.90
15407;DHT22;7802;51.568;6.364;2022-07-23T14:19:27;24.90;99.90
15407;DHT22;7802;51.568;6.364;2022-07-23T14:21:59;25.10;99.90
15407;DHT22;7802;51.568;6.364;2022-07-23T14:24:27;25.60;99.90
15407;DHT22;7802;51.568;6.364;2022-07-23T14:27:00;25.20;99.90
15407;DHT22;7802;51.568;6.364;2022-07-23T14:29:30;25.10;99.90
15407;DHT22;7802;51.568;6.364;2022-07-23T14:31:59;25.10;99.90
15407;DHT22;7802;51.568;6.364;2022-07-23T14:34:28;25.00;99.90
15407;DHT22;7802;51.568;6.364;2022-07-23T14:36:58;25.00;99.90
15407;DHT22;7802;51.568;6.364;2022-07-23T14:39:27;24.80;99.90
15407;DHT22;7802;51.568;6.364;2022-07-23T14:41:56;24.80;99.90
15407;DHT22;7802;51.568;6.364;2022-07-23T14:44:24;24.90;99.90
15407;DHT22;7802;51.568;6.364;2022-07-23T14:46:53;25.00;99.90
15407;DHT22;7802;51.568;6.364;2022-07-23T14:49:21;25.10;99.90
15407;DHT22;7802;51.568;6.364;2022-07-23T14:51:53;25.30;99.90
15407;DHT22;7802;51.568;6.364;2022-07-23T14:54:24;25.10;99.90
15407;DHT22;7802;51.568;6.364;2022-07-23T14:56:54;25.10;99.90
15407;DHT22;7802;51.568;6.364;2022-07-23T14:59:22;25.20;99.90
15407;DHT22;7802;51.568;6.364;2022-07-23T15:01:52;25.00;99.90
15407;DHT22;7802;51.568;6.364;2022-07-23T15:04:24;25.10;99.90
15407;DHT22;7802;51.568;6.364;2022-07-23T15:07:03;24.90;99.90
15407;DHT22;7802;51.568;6.364;2022-07-23T15:09:33;24.90;99.90
15407;DHT22;7802;51.568;6.364;2022-07-23T15:12:02;24.80;99.90
15407;DHT22;7802;51.568;6.364;2022-07-23T15:14:34;25.00;99.90
15407;DHT22;7802;51.568;6.364;2022-07-23T15:17:02;25.00;99.90
15407;DHT22;7802;51.568;6.364;2022-07-23T15:19:30;25.80;99.90
15407;DHT22;7802;51.568;6.364;2022-07-23T15:21:58;25.70;99.90
15407;DHT22;7802;51.568;6.364;2022-07-23T15:24:29;24.90;99.90
15407;DHT22;7802;51.568;6.364;2022-07-23T15:26:59;24.80;99.90
15407;DHT22;7802;51.568;6.364;2022-07-23T15:29:27;24.80;99.90
15407;DHT22;7802;51.568;6.364;2022-07-23T15:31:55;24.80;99.90
15407;DHT22;7802;51.568;6.364;2022-07-23T15:34:25;25.00;99.90
15407;DHT22;7802;51.568;6.364;2022-07-23T15:36:54;24.90;99.90
15407;DHT22;7802;51.568;6.364;2022-07-23T15:39:22;25.00;99.90
15407;DHT22;7802;51.568;6.364;2022-07-23T15:41:51;25.10;99.90
15407;DHT22;7802;51.568;6.364;2022-07-23T15:44:20;25.10;99.90
15407;DHT22;7802;51.568;6.364;2022-07-23T15:46:56;25.20;99.90
15407;DHT22;7802;51.568;6.364;2022-07-23T15:49:25;25.10;99.90
15407;DHT22;7802;51.568;6.364;2022-07-23T15:51:54;25.00;99.90
15407;DHT22;7802;51.568;6.364;2022-07-23T15:54:24;24.90;99.90
15407;DHT22;7802;51.568;6.364;2022-07-23T15:56:52;24.90;99.90
15407;DHT22;7802;51.568;6.364;2022-07-23T15:59:23;25.00;99.90
15407;DHT22;7802;51.568;6.364;2022-07-23T16:01:56;24.90;99.90
15407;DHT22;7802;51.568;6.364;2022-07-23T16:04:25;25.00;99.90
15407;DHT22;7802;51.568;6.364;2022-07-23T16:06:54;25.00;99.90
15407;DHT22;7802;51.568;6.364;2022-07-23T16:09:22;25.00;99.90